Trawscoed, United Kingdom
Current Conditions -  °F | °C
As of 12:50 PM on Thursday 18 Dec 2014 (Local Time) from EGOP Reporting Station
Overcast Overcast  
Wind Chill: 54°   Ceiling: 400
Heat Index: 54°   Visibility: 1.3mi
Dew Point: 52°   Wind: 36mph
Humidity: 94%   Direction: 240°WSW
Pressure: 29.83"   Gusts: NA
Location:  52.35°N, 3.95°W
Report Text: EGOP 181250Z AUTO 24031KT 2100 // OVC004/// 12/11 Q1010
Loading
Personal Weather Stations






























Interactive Weather Map New forecast layout! Learn more

10-Day Weather Forecast

Advertisements
Track Severe Weather on mobile